sensor_id;sensor_type;location;lat;lon;timestamp;temperature;humidity
78054;DHT22;67726;45.636;11.752;2024-02-23T00:01:31;10.30;99.90
78054;DHT22;67726;45.636;11.752;2024-02-23T00:03:56;10.30;99.90
78054;DHT22;67726;45.636;11.752;2024-02-23T00:06:22;10.30;99.90
78054;DHT22;67726;45.636;11.752;2024-02-23T00:08:53;10.30;99.90
78054;DHT22;67726;45.636;11.752;2024-02-23T00:11:20;10.20;99.90
78054;DHT22;67726;45.636;11.752;2024-02-23T00:13:46;10.30;99.90
78054;DHT22;67726;45.636;11.752;2024-02-23T00:16:12;10.30;99.90
78054;DHT22;67726;45.636;11.752;2024-02-23T00:18:38;10.20;99.90
78054;DHT22;67726;45.636;11.752;2024-02-23T00:21:04;10.20;99.90
78054;DHT22;67726;45.636;11.752;2024-02-23T00:23:30;10.20;99.90
78054;DHT22;67726;45.636;11.752;2024-02-23T00:25:55;10.10;99.90
78054;DHT22;67726;45.636;11.752;2024-02-23T00:28:21;10.20;99.90
78054;DHT22;67726;45.636;11.752;2024-02-23T00:30:47;10.10;99.90
78054;DHT22;67726;45.636;11.752;2024-02-23T00:33:13;10.20;99.90
78054;DHT22;67726;45.636;11.752;2024-02-23T00:35:39;10.10;99.90
78054;DHT22;67726;45.636;11.752;2024-02-23T00:38:05;10.10;99.90
78054;DHT22;67726;45.636;11.752;2024-02-23T00:40:30;10.10;99.90
78054;DHT22;67726;45.636;11.752;2024-02-23T00:42:56;10.10;99.90
78054;DHT22;67726;45.636;11.752;2024-02-23T00:45:22;10.20;99.90
78054;DHT22;67726;45.636;11.752;2024-02-23T00:47:48;10.20;99.90
78054;DHT22;67726;45.636;11.752;2024-02-23T00:50:14;10.20;99.90
78054;DHT22;67726;45.636;11.752;2024-02-23T00:52:40;10.10;99.90
78054;DHT22;67726;45.636;11.752;2024-02-23T00:55:06;10.20;99.90
78054;DHT22;67726;45.636;11.752;2024-02-23T00:57:37;10.10;99.90
78054;DHT22;67726;45.636;11.752;2024-02-23T01:00:03;10.10;99.90
78054;DHT22;67726;45.636;11.752;2024-02-23T01:02:34;10.00;99.90
78054;DHT22;67726;45.636;11.752;2024-02-23T01:05:00;10.00;99.90
78054;DHT22;67726;45.636;11.752;2024-02-23T01:07:26;10.10;99.90
78054;DHT22;67726;45.636;11.752;2024-02-23T01:09:51;10.00;99.90
78054;DHT22;67726;45.636;11.752;2024-02-23T01:12:17;10.00;99.90
78054;DHT22;67726;45.636;11.752;2024-02-23T01:14:43;10.10;99.90
78054;DHT22;67726;45.636;11.752;2024-02-23T01:17:08;10.10;99.90
78054;DHT22;67726;45.636;11.752;2024-02-23T01:19:34;10.00;99.90
78054;DHT22;67726;45.636;11.752;2024-02-23T01:22:00;10.00;99.90
78054;DHT22;67726;45.636;11.752;2024-02-23T01:24:28;10.00;99.90
78054;DHT22;67726;45.636;11.752;2024-02-23T01:26:55;10.00;99.90
78054;DHT22;67726;45.636;11.752;2024-02-23T01:29:22;10.00;99.90
78054;DHT22;67726;45.636;11.752;2024-02-23T01:31:50;10.00;99.90
78054;DHT22;67726;45.636;11.752;2024-02-23T01:34:17;10.00;99.90
78054;DHT22;67726;45.636;11.752;2024-02-23T01:36:43;10.00;99.90
78054;DHT22;67726;45.636;11.752;2024-02-23T01:39:09;10.00;99.90
78054;DHT22;67726;45.636;11.752;2024-02-23T01:41:35;10.10;99.90
78054;DHT22;67726;45.636;11.752;2024-02-23T01:44:01;10.00;99.90
78054;DHT22;67726;45.636;11.752;2024-02-23T01:46:27;10.10;99.90
78054;DHT22;67726;45.636;11.752;2024-02-23T01:48:53;10.00;99.90
78054;DHT22;67726;45.636;11.752;2024-02-23T01:51:19;10.00;99.90
78054;DHT22;67726;45.636;11.752;2024-02-23T01:53:45;10.00;99.90
78054;DHT22;67726;45.636;11.752;2024-02-23T01:56:12;10.10;99.90
78054;DHT22;67726;45.636;11.752;2024-02-23T01:58:43;10.10;99.90
78054;DHT22;67726;45.636;11.752;2024-02-23T02:01:10;10.00;99.90
78054;DHT22;67726;45.636;11.752;2024-02-23T02:03:37;10.00;99.90
78054;DHT22;67726;45.636;11.752;2024-02-23T02:06:07;10.00;99.90
78054;DHT22;67726;45.636;11.752;2024-02-23T02:08:37;9.90;99.90
78054;DHT22;67726;45.636;11.752;2024-02-23T02:11:03;9.90;99.90
78054;DHT22;67726;45.636;11.752;2024-02-23T02:13:29;10.00;99.90
78054;DHT22;67726;45.636;11.752;2024-02-23T02:15:55;10.00;99.90
78054;DHT22;67726;45.636;11.752;2024-02-23T02:18:21;10.00;99.90
78054;DHT22;67726;45.636;11.752;2024-02-23T02:20:52;10.00;99.90
78054;DHT22;67726;45.636;11.752;2024-02-23T02:23:19;10.00;99.90
78054;DHT22;67726;45.636;11.752;2024-02-23T02:25:44;10.00;99.90
78054;DHT22;67726;45.636;11.752;2024-02-23T02:28:10;10.00;99.90
78054;DHT22;67726;45.636;11.752;2024-02-23T02:30:36;10.00;99.90
78054;DHT22;67726;45.636;11.752;2024-02-23T02:33:02;10.00;99.90
78054;DHT22;67726;45.636;11.752;2024-02-23T02:35:27;9.90;99.90
78054;DHT22;67726;45.636;11.752;2024-02-23T02:37:53;10.00;99.90
78054;DHT22;67726;45.636;11.752;2024-02-23T02:40:19;10.00;99.90
78054;DHT22;67726;45.636;11.752;2024-02-23T02:42:44;10.00;99.90
78054;DHT22;67726;45.636;11.752;2024-02-23T02:45:10;10.00;99.90
78054;DHT22;67726;45.636;11.752;2024-02-23T02:47:36;10.00;99.90
78054;DHT22;67726;45.636;11.752;2024-02-23T02:50:02;10.00;99.90
78054;DHT22;67726;45.636;11.752;2024-02-23T02:52:27;10.00;99.90
78054;DHT22;67726;45.636;11.752;2024-02-23T02:54:54;9.90;99.90
78054;DHT22;67726;45.636;11.752;2024-02-23T02:57:19;10.10;99.90
78054;DHT22;67726;45.636;11.752;2024-02-23T02:59:45;10.00;99.90
78054;DHT22;67726;45.636;11.752;2024-02-23T03:02:11;10.10;99.90
78054;DHT22;67726;45.636;11.752;2024-02-23T03:04:37;10.10;99.90
78054;DHT22;67726;45.636;11.752;2024-02-23T03:07:03;10.10;99.90
78054;DHT22;67726;45.636;11.752;2024-02-23T03:09:29;10.10;99.90
78054;DHT22;67726;45.636;11.752;2024-02-23T03:11:54;10.00;99.90
78054;DHT22;67726;45.636;11.752;2024-02-23T03:14:20;10.10;99.90
78054;DHT22;67726;45.636;11.752;2024-02-23T03:16:46;10.10;99.90
78054;DHT22;67726;45.636;11.752;2024-02-23T03:19:13;10.10;99.90
78054;DHT22;67726;45.636;11.752;2024-02-23T03:21:39;10.00;99.90
78054;DHT22;67726;45.636;11.752;2024-02-23T03:24:04;10.10;99.90
78054;DHT22;67726;45.636;11.752;2024-02-23T03:26:30;10.00;99.90
78054;DHT22;67726;45.636;11.752;2024-02-23T03:28:56;10.00;99.90
78054;DHT22;67726;45.636;11.752;2024-02-23T03:31:21;10.10;99.90
78054;DHT22;67726;45.636;11.752;2024-02-23T03:33:47;10.00;99.90
78054;DHT22;67726;45.636;11.752;2024-02-23T03:36:12;10.00;99.90
78054;DHT22;67726;45.636;11.752;2024-02-23T03:38:38;10.10;99.90
78054;DHT22;67726;45.636;11.752;2024-02-23T03:41:04;10.10;99.90
78054;DHT22;67726;45.636;11.752;2024-02-23T03:43:29;10.00;99.90
78054;DHT22;67726;45.636;11.752;2024-02-23T03:45:55;10.00;99.90
78054;DHT22;67726;45.636;11.752;2024-02-23T03:48:21;10.00;99.90
78054;DHT22;67726;45.636;11.752;2024-02-23T03:50:46;10.00;99.90
78054;DHT22;67726;45.636;11.752;2024-02-23T03:53:12;10.00;99.90
78054;DHT22;67726;45.636;11.752;2024-02-23T03:55:38;10.10;99.90
78054;DHT22;67726;45.636;11.752;2024-02-23T03:58:03;10.10;99.90
78054;DHT22;67726;45.636;11.752;2024-02-23T04:00:29;10.10;99.90
78054;DHT22;67726;45.636;11.752;2024-02-23T04:02:55;10.00;99.90
78054;DHT22;67726;45.636;11.752;2024-02-23T04:05:20;10.00;99.90
78054;DHT22;67726;45.636;11.752;2024-02-23T04:07:46;10.00;99.90
78054;DHT22;67726;45.636;11.752;2024-02-23T04:10:11;10.10;99.90
78054;DHT22;67726;45.636;11.752;2024-02-23T04:12:42;10.10;99.90
78054;DHT22;67726;45.636;11.752;2024-02-23T04:15:09;10.00;99.90
78054;DHT22;67726;45.636;11.752;2024-02-23T04:17:35;10.10;99.90
78054;DHT22;67726;45.636;11.752;2024-02-23T04:20:06;10.10;99.90
78054;DHT22;67726;45.636;11.752;2024-02-23T04:22:32;10.10;99.90
78054;DHT22;67726;45.636;11.752;2024-02-23T04:24:57;10.10;99.90
78054;DHT22;67726;45.636;11.752;2024-02-23T04:27:23;10.10;99.90
78054;DHT22;67726;45.636;11.752;2024-02-23T04:29:48;10.10;99.90
78054;DHT22;67726;45.636;11.752;2024-02-23T04:32:14;10.20;99.90
78054;DHT22;67726;45.636;11.752;2024-02-23T04:34:40;10.10;99.90
78054;DHT22;67726;45.636;11.752;2024-02-23T04:37:07;10.20;99.90
78054;DHT22;67726;45.636;11.752;2024-02-23T04:39:32;10.10;99.90
78054;DHT22;67726;45.636;11.752;2024-02-23T04:41:58;10.20;99.90
78054;DHT22;67726;45.636;11.752;2024-02-23T04:44:24;10.20;99.90
78054;DHT22;67726;45.636;11.752;2024-02-23T04:46:49;10.20;99.90
78054;DHT22;67726;45.636;11.752;2024-02-23T04:49:15;10.20;99.90
78054;DHT22;67726;45.636;11.752;2024-02-23T04:51:41;10.20;99.90
78054;DHT22;67726;45.636;11.752;2024-02-23T04:54:06;10.30;99.90
78054;DHT22;67726;45.636;11.752;2024-02-23T04:56:32;10.30;99.90
78054;DHT22;67726;45.636;11.752;2024-02-23T04:58:59;10.30;99.90
78054;DHT22;67726;45.636;11.752;2024-02-23T05:01:24;10.30;99.90
78054;DHT22;67726;45.636;11.752;2024-02-23T05:03:50;10.40;99.90
78054;DHT22;67726;45.636;11.752;2024-02-23T05:06:16;10.20;99.90
78054;DHT22;67726;45.636;11.752;2024-02-23T05:08:41;10.30;99.90
78054;DHT22;67726;45.636;11.752;2024-02-23T05:11:07;10.30;99.90
78054;DHT22;67726;45.636;11.752;2024-02-23T05:13:32;10.40;99.90
78054;DHT22;67726;45.636;11.752;2024-02-23T05:15:58;10.30;99.90
78054;DHT22;67726;45.636;11.752;2024-02-23T05:18:24;10.30;99.90
78054;DHT22;67726;45.636;11.752;2024-02-23T05:20:49;10.30;99.90
78054;DHT22;67726;45.636;11.752;2024-02-23T05:23:15;10.20;99.90
78054;DHT22;67726;45.636;11.752;2024-02-23T05:25:44;10.30;99.90
78054;DHT22;67726;45.636;11.752;2024-02-23T05:28:09;10.30;99.90
78054;DHT22;67726;45.636;11.752;2024-02-23T05:30:35;10.40;99.90
78054;DHT22;67726;45.636;11.752;2024-02-23T05:33:01;10.30;99.90
78054;DHT22;67726;45.636;11.752;2024-02-23T05:35:29;10.30;99.90
78054;DHT22;67726;45.636;11.752;2024-02-23T05:37:55;10.30;99.90
78054;DHT22;67726;45.636;11.752;2024-02-23T05:40:21;10.40;99.90
78054;DHT22;67726;45.636;11.752;2024-02-23T05:42:47;10.40;99.90
78054;DHT22;67726;45.636;11.752;2024-02-23T05:45:12;10.30;99.90
78054;DHT22;67726;45.636;11.752;2024-02-23T05:47:38;10.40;99.90
78054;DHT22;67726;45.636;11.752;2024-02-23T05:50:05;10.40;99.90
78054;DHT22;67726;45.636;11.752;2024-02-23T05:52:34;10.40;99.90
78054;DHT22;67726;45.636;11.752;2024-02-23T05:55:00;10.50;99.90
78054;DHT22;67726;45.636;11.752;2024-02-23T05:57:26;10.50;99.90
78054;DHT22;67726;45.636;11.752;2024-02-23T05:59:53;10.50;99.90
78054;DHT22;67726;45.636;11.752;2024-02-23T06:02:18;10.40;99.90
78054;DHT22;67726;45.636;11.752;2024-02-23T06:04:44;10.50;99.90
78054;DHT22;67726;45.636;11.752;2024-02-23T06:07:10;10.50;99.90
78054;DHT22;67726;45.636;11.752;2024-02-23T06:09:36;10.50;99.90
78054;DHT22;67726;45.636;11.752;2024-02-23T06:12:02;10.50;99.90
78054;DHT22;67726;45.636;11.752;2024-02-23T06:14:28;10.60;99.90
78054;DHT22;67726;45.636;11.752;2024-02-23T06:16:54;10.50;99.90
78054;DHT22;67726;45.636;11.752;2024-02-23T06:19:19;10.60;99.90
78054;DHT22;67726;45.636;11.752;2024-02-23T06:21:48;10.50;99.90
78054;DHT22;67726;45.636;11.752;2024-02-23T06:24:15;10.60;99.90
78054;DHT22;67726;45.636;11.752;2024-02-23T06:26:41;10.60;99.90
78054;DHT22;67726;45.636;11.752;2024-02-23T06:29:07;10.60;99.90
78054;DHT22;67726;45.636;11.752;2024-02-23T06:31:37;10.60;99.90
78054;DHT22;67726;45.636;11.752;2024-02-23T06:34:03;10.70;99.90
78054;DHT22;67726;45.636;11.752;2024-02-23T06:36:29;10.70;99.90
78054;DHT22;67726;45.636;11.752;2024-02-23T06:38:55;10.70;99.90
78054;DHT22;67726;45.636;11.752;2024-02-23T06:41:20;10.70;99.90
78054;DHT22;67726;45.636;11.752;2024-02-23T06:43:46;10.80;99.90
78054;DHT22;67726;45.636;11.752;2024-02-23T06:46:12;10.70;99.90
78054;DHT22;67726;45.636;11.752;2024-02-23T06:48:38;10.80;99.90
78054;DHT22;67726;45.636;11.752;2024-02-23T06:51:05;10.80;99.90
78054;DHT22;67726;45.636;11.752;2024-02-23T06:53:31;10.80;99.90
78054;DHT22;67726;45.636;11.752;2024-02-23T06:55:56;10.80;99.90
78054;DHT22;67726;45.636;11.752;2024-02-23T06:58:24;10.80;99.90
78054;DHT22;67726;45.636;11.752;2024-02-23T07:00:50;10.80;99.90
78054;DHT22;67726;45.636;11.752;2024-02-23T07:03:15;10.80;99.90
78054;DHT22;67726;45.636;11.752;2024-02-23T07:05:42;10.90;99.90
78054;DHT22;67726;45.636;11.752;2024-02-23T07:08:08;10.90;99.90
78054;DHT22;67726;45.636;11.752;2024-02-23T07:10:33;10.90;99.90
78054;DHT22;67726;45.636;11.752;2024-02-23T07:13:00;10.90;99.90
78054;DHT22;67726;45.636;11.752;2024-02-23T07:15:26;10.80;99.90
78054;DHT22;67726;45.636;11.752;2024-02-23T07:17:52;10.90;99.90
78054;DHT22;67726;45.636;11.752;2024-02-23T07:20:18;10.90;99.90
78054;DHT22;67726;45.636;11.752;2024-02-23T07:22:44;10.80;99.90
78054;DHT22;67726;45.636;11.752;2024-02-23T07:25:36;10.80;99.90
78054;DHT22;67726;45.636;11.752;2024-02-23T07:28:01;10.90;99.90
78054;DHT22;67726;45.636;11.752;2024-02-23T07:30:27;10.80;99.90
78054;DHT22;67726;45.636;11.752;2024-02-23T07:32:53;10.90;99.90
78054;DHT22;67726;45.636;11.752;2024-02-23T07:35:19;11.00;99.90
78054;DHT22;67726;45.636;11.752;2024-02-23T07:37:44;11.00;99.90
78054;DHT22;67726;45.636;11.752;2024-02-23T07:40:10;11.00;99.90
78054;DHT22;67726;45.636;11.752;2024-02-23T07:42:37;10.90;99.90
78054;DHT22;67726;45.636;11.752;2024-02-23T07:45:04;10.90;99.90
78054;DHT22;67726;45.636;11.752;2024-02-23T07:47:31;10.90;99.90
78054;DHT22;67726;45.636;11.752;2024-02-23T07:49:57;11.00;99.90
78054;DHT22;67726;45.636;11.752;2024-02-23T07:52:22;10.90;99.90
78054;DHT22;67726;45.636;11.752;2024-02-23T07:54:52;10.90;99.90
78054;DHT22;67726;45.636;11.752;2024-02-23T07:57:20;11.00;99.90
78054;DHT22;67726;45.636;11.752;2024-02-23T07:59:46;10.90;99.90
78054;DHT22;67726;45.636;11.752;2024-02-23T08:02:13;10.90;99.90
78054;DHT22;67726;45.636;11.752;2024-02-23T08:04:39;10.90;99.90
78054;DHT22;67726;45.636;11.752;2024-02-23T08:07:05;10.90;99.90
78054;DHT22;67726;45.636;11.752;2024-02-23T08:09:30;10.90;99.90
78054;DHT22;67726;45.636;11.752;2024-02-23T08:11:56;11.00;99.90
78054;DHT22;67726;45.636;11.752;2024-02-23T08:14:22;11.00;99.90
78054;DHT22;67726;45.636;11.752;2024-02-23T08:16:47;10.90;99.90
78054;DHT22;67726;45.636;11.752;2024-02-23T08:19:13;11.00;99.90
78054;DHT22;67726;45.636;11.752;2024-02-23T08:21:39;11.00;99.90
78054;DHT22;67726;45.636;11.752;2024-02-23T08:24:06;10.90;99.90
78054;DHT22;67726;45.636;11.752;2024-02-23T08:26:32;10.90;99.90
78054;DHT22;67726;45.636;11.752;2024-02-23T08:28:59;11.00;99.90
78054;DHT22;67726;45.636;11.752;2024-02-23T08:31:24;11.00;99.90
78054;DHT22;67726;45.636;11.752;2024-02-23T08:33:50;11.00;99.90
78054;DHT22;67726;45.636;11.752;2024-02-23T08:36:16;11.00;99.90
78054;DHT22;67726;45.636;11.752;2024-02-23T08:38:41;11.00;99.90
78054;DHT22;67726;45.636;11.752;2024-02-23T08:41:07;11.10;99.90
78054;DHT22;67726;45.636;11.752;2024-02-23T08:43:34;11.00;99.90
78054;DHT22;67726;45.636;11.752;2024-02-23T08:45:59;11.10;99.90
78054;DHT22;67726;45.636;11.752;2024-02-23T08:48:25;11.00;99.90
78054;DHT22;67726;45.636;11.752;2024-02-23T08:50:51;11.00;99.90
78054;DHT22;67726;45.636;11.752;2024-02-23T08:53:16;11.00;99.90
78054;DHT22;67726;45.636;11.752;2024-02-23T08:55:43;11.00;99.90
78054;DHT22;67726;45.636;11.752;2024-02-23T08:58:08;11.20;99.90
78054;DHT22;67726;45.636;11.752;2024-02-23T09:00:35;11.10;99.90
78054;DHT22;67726;45.636;11.752;2024-02-23T09:03:02;11.10;99.90
78054;DHT22;67726;45.636;11.752;2024-02-23T09:05:28;11.00;99.90
78054;DHT22;67726;45.636;11.752;2024-02-23T09:07:54;11.10;99.90
78054;DHT22;67726;45.636;11.752;2024-02-23T09:10:20;11.10;99.90
78054;DHT22;67726;45.636;11.752;2024-02-23T09:12:46;11.10;99.90
78054;DHT22;67726;45.636;11.752;2024-02-23T09:15:11;11.20;99.90
78054;DHT22;67726;45.636;11.752;2024-02-23T09:17:37;11.10;99.90
78054;DHT22;67726;45.636;11.752;2024-02-23T09:20:05;11.20;99.90
78054;DHT22;67726;45.636;11.752;2024-02-23T09:22:31;11.20;99.90
78054;DHT22;67726;45.636;11.752;2024-02-23T09:25:18;11.20;99.90
78054;DHT22;67726;45.636;11.752;2024-02-23T09:27:44;11.20;99.90
78054;DHT22;67726;45.636;11.752;2024-02-23T09:30:12;11.30;99.90
78054;DHT22;67726;45.636;11.752;2024-02-23T09:32:38;11.30;99.90
78054;DHT22;67726;45.636;11.752;2024-02-23T09:35:03;11.30;99.90
78054;DHT22;67726;45.636;11.752;2024-02-23T09:37:30;11.40;99.90
78054;DHT22;67726;45.636;11.752;2024-02-23T09:39:56;11.20;99.90
78054;DHT22;67726;45.636;11.752;2024-02-23T09:42:23;11.30;99.90
78054;DHT22;67726;45.636;11.752;2024-02-23T09:44:58;11.40;99.90
78054;DHT22;67726;45.636;11.752;2024-02-23T09:47:27;11.40;99.90
78054;DHT22;67726;45.636;11.752;2024-02-23T09:49:54;11.40;99.90
78054;DHT22;67726;45.636;11.752;2024-02-23T09:52:21;11.30;99.90
78054;DHT22;67726;45.636;11.752;2024-02-23T09:54:47;11.40;99.90
78054;DHT22;67726;45.636;11.752;2024-02-23T09:57:14;11.50;99.90
78054;DHT22;67726;45.636;11.752;2024-02-23T09:59:41;11.40;99.90
78054;DHT22;67726;45.636;11.752;2024-02-23T10:02:14;11.50;99.90
78054;DHT22;67726;45.636;11.752;2024-02-23T10:04:41;11.40;99.90
78054;DHT22;67726;45.636;11.752;2024-02-23T10:07:09;11.50;99.90
78054;DHT22;67726;45.636;11.752;2024-02-23T10:09:35;11.50;99.90
78054;DHT22;67726;45.636;11.752;2024-02-23T10:12:02;11.30;99.90
78054;DHT22;67726;45.636;11.752;2024-02-23T10:14:28;11.50;99.90
78054;DHT22;67726;45.636;11.752;2024-02-23T10:16:54;11.50;99.90
78054;DHT22;67726;45.636;11.752;2024-02-23T10:19:21;11.60;99.90
78054;DHT22;67726;45.636;11.752;2024-02-23T10:21:47;11.50;99.90
78054;DHT22;67726;45.636;11.752;2024-02-23T10:24:15;11.50;99.90
78054;DHT22;67726;45.636;11.752;2024-02-23T10:26:42;11.40;99.90
78054;DHT22;67726;45.636;11.752;2024-02-23T10:29:07;11.50;99.90
78054;DHT22;67726;45.636;11.752;2024-02-23T10:31:35;11.70;99.90
78054;DHT22;67726;45.636;11.752;2024-02-23T10:34:09;11.60;99.90
78054;DHT22;67726;45.636;11.752;2024-02-23T10:36:42;11.60;99.90
78054;DHT22;67726;45.636;11.752;2024-02-23T10:39:08;11.60;99.90
78054;DHT22;67726;45.636;11.752;2024-02-23T10:41:35;11.60;99.90
78054;DHT22;67726;45.636;11.752;2024-02-23T10:44:03;11.60;99.90
78054;DHT22;67726;45.636;11.752;2024-02-23T10:46:31;11.60;99.90
78054;DHT22;67726;45.636;11.752;2024-02-23T10:48:58;11.70;99.90
78054;DHT22;67726;45.636;11.752;2024-02-23T10:51:27;11.60;99.90
78054;DHT22;67726;45.636;11.752;2024-02-23T10:53:53;11.60;99.90
78054;DHT22;67726;45.636;11.752;2024-02-23T10:56:19;11.50;99.90
78054;DHT22;67726;45.636;11.752;2024-02-23T10:58:45;11.60;99.90
78054;DHT22;67726;45.636;11.752;2024-02-23T11:01:12;11.60;99.90
78054;DHT22;67726;45.636;11.752;2024-02-23T11:03:42;11.60;99.90
78054;DHT22;67726;45.636;11.752;2024-02-23T11:06:08;11.50;99.90
78054;DHT22;67726;45.636;11.752;2024-02-23T11:08:34;11.50;99.90
78054;DHT22;67726;45.636;11.752;2024-02-23T11:11:09;11.60;99.90
78054;DHT22;67726;45.636;11.752;2024-02-23T11:13:35;11.50;99.90
78054;DHT22;67726;45.636;11.752;2024-02-23T11:16:06;11.60;99.90
78054;DHT22;67726;45.636;11.752;2024-02-23T11:18:38;11.50;99.90
78054;DHT22;67726;45.636;11.752;2024-02-23T11:21:05;11.40;99.90
78054;DHT22;67726;45.636;11.752;2024-02-23T11:23:41;11.50;99.90
78054;DHT22;67726;45.636;11.752;2024-02-23T11:26:12;11.50;99.90
78054;DHT22;67726;45.636;11.752;2024-02-23T11:28:48;11.60;99.90
78054;DHT22;67726;45.636;11.752;2024-02-23T11:31:22;11.50;99.90
78054;DHT22;67726;45.636;11.752;2024-02-23T11:33:55;11.60;99.90
78054;DHT22;67726;45.636;11.752;2024-02-23T11:36:28;11.60;99.90
78054;DHT22;67726;45.636;11.752;2024-02-23T11:38:56;11.70;99.90
78054;DHT22;67726;45.636;11.752;2024-02-23T11:41:23;11.70;99.90
78054;DHT22;67726;45.636;11.752;2024-02-23T11:43:56;11.70;99.90
78054;DHT22;67726;45.636;11.752;2024-02-23T11:46:22;11.50;99.90
78054;DHT22;67726;45.636;11.752;2024-02-23T11:51:23;11.70;99.90
78054;DHT22;67726;45.636;11.752;2024-02-23T11:53:51;11.50;99.90
78054;DHT22;67726;45.636;11.752;2024-02-23T11:56:18;11.60;99.90
78054;DHT22;67726;45.636;11.752;2024-02-23T11:58:46;11.50;99.90
78054;DHT22;67726;45.636;11.752;2024-02-23T12:01:12;11.70;99.90
78054;DHT22;67726;45.636;11.752;2024-02-23T12:03:38;11.50;99.90
78054;DHT22;67726;45.636;11.752;2024-02-23T12:06:05;11.50;99.90
78054;DHT22;67726;45.636;11.752;2024-02-23T12:08:32;11.50;99.90
78054;DHT22;67726;45.636;11.752;2024-02-23T12:11:09;11.50;99.90
78054;DHT22;67726;45.636;11.752;2024-02-23T12:13:36;11.50;99.90
78054;DHT22;67726;45.636;11.752;2024-02-23T12:16:02;11.50;99.90
78054;DHT22;67726;45.636;11.752;2024-02-23T12:18:28;11.50;99.90
78054;DHT22;67726;45.636;11.752;2024-02-23T12:21:04;11.50;99.90
78054;DHT22;67726;45.636;11.752;2024-02-23T12:23:48;11.60;99.90
78054;DHT22;67726;45.636;11.752;2024-02-23T12:26:15;11.50;99.90
78054;DHT22;67726;45.636;11.752;2024-02-23T12:28:42;11.40;99.90
78054;DHT22;67726;45.636;11.752;2024-02-23T12:31:08;11.40;99.90
78054;DHT22;67726;45.636;11.752;2024-02-23T12:33:37;11.50;99.90
78054;DHT22;67726;45.636;11.752;2024-02-23T12:36:05;11.60;99.90
78054;DHT22;67726;45.636;11.752;2024-02-23T12:38:31;11.50;99.90
78054;DHT22;67726;45.636;11.752;2024-02-23T12:40:57;11.70;99.90
78054;DHT22;67726;45.636;11.752;2024-02-23T12:43:23;11.60;99.90
78054;DHT22;67726;45.636;11.752;2024-02-23T12:45:53;11.50;99.90
78054;DHT22;67726;45.636;11.752;2024-02-23T12:48:19;11.60;99.90
78054;DHT22;67726;45.636;11.752;2024-02-23T12:50:46;11.60;99.90
78054;DHT22;67726;45.636;11.752;2024-02-23T12:53:36;11.50;99.90
78054;DHT22;67726;45.636;11.752;2024-02-23T12:56:09;11.50;99.90
78054;DHT22;67726;45.636;11.752;2024-02-23T12:58:37;11.50;99.90
78054;DHT22;67726;45.636;11.752;2024-02-23T13:01:03;11.50;99.90
78054;DHT22;67726;45.636;11.752;2024-02-23T13:03:29;11.50;99.90
78054;DHT22;67726;45.636;11.752;2024-02-23T13:05:55;11.40;99.90
78054;DHT22;67726;45.636;11.752;2024-02-23T13:08:25;11.60;99.90
78054;DHT22;67726;45.636;11.752;2024-02-23T13:10:52;11.50;99.90
78054;DHT22;67726;45.636;11.752;2024-02-23T13:13:19;11.50;99.90
78054;DHT22;67726;45.636;11.752;2024-02-23T13:15:46;11.50;99.90
78054;DHT22;67726;45.636;11.752;2024-02-23T13:18:12;11.50;99.90
78054;DHT22;67726;45.636;11.752;2024-02-23T13:20:39;11.50;99.90
78054;DHT22;67726;45.636;11.752;2024-02-23T13:23:07;11.40;99.90
78054;DHT22;67726;45.636;11.752;2024-02-23T13:25:34;11.30;99.90
78054;DHT22;67726;45.636;11.752;2024-02-23T13:28:00;11.30;99.90
78054;DHT22;67726;45.636;11.752;2024-02-23T13:30:25;11.30;99.90
78054;DHT22;67726;45.636;11.752;2024-02-23T13:32:52;11.30;99.90
78054;DHT22;67726;45.636;11.752;2024-02-23T13:35:18;11.30;99.90
78054;DHT22;67726;45.636;11.752;2024-02-23T13:37:44;11.30;99.90
78054;DHT22;67726;45.636;11.752;2024-02-23T13:40:10;11.40;99.90
78054;DHT22;67726;45.636;11.752;2024-02-23T13:42:37;11.40;99.90
78054;DHT22;67726;45.636;11.752;2024-02-23T13:45:08;11.40;99.90
78054;DHT22;67726;45.636;11.752;2024-02-23T13:47:35;11.40;99.90
78054;DHT22;67726;45.636;11.752;2024-02-23T13:50:05;11.50;99.90
78054;DHT22;67726;45.636;11.752;2024-02-23T13:52:31;11.40;99.90
78054;DHT22;67726;45.636;11.752;2024-02-23T13:54:57;11.40;99.90
78054;DHT22;67726;45.636;11.752;2024-02-23T13:57:23;11.40;99.90
78054;DHT22;67726;45.636;11.752;2024-02-23T13:59:48;11.40;99.90
78054;DHT22;67726;45.636;11.752;2024-02-23T14:02:14;11.30;99.90
78054;DHT22;67726;45.636;11.752;2024-02-23T14:04:40;11.30;99.90
78054;DHT22;67726;45.636;11.752;2024-02-23T14:07:07;11.10;99.90
78054;DHT22;67726;45.636;11.752;2024-02-23T14:09:32;11.00;99.90
78054;DHT22;67726;45.636;11.752;2024-02-23T14:11:58;10.90;99.90
78054;DHT22;67726;45.636;11.752;2024-02-23T14:14:24;10.90;99.90
78054;DHT22;67726;45.636;11.752;2024-02-23T14:16:50;10.90;99.90
78054;DHT22;67726;45.636;11.752;2024-02-23T14:19:15;10.90;99.90
78054;DHT22;67726;45.636;11.752;2024-02-23T14:21:41;10.80;99.90
78054;DHT22;67726;45.636;11.752;2024-02-23T14:24:07;11.00;99.90
78054;DHT22;67726;45.636;11.752;2024-02-23T14:26:33;11.00;99.90
78054;DHT22;67726;45.636;11.752;2024-02-23T14:28:59;11.00;99.90
78054;DHT22;67726;45.636;11.752;2024-02-23T14:31:25;11.20;99.90
78054;DHT22;67726;45.636;11.752;2024-02-23T14:33:51;11.20;99.90
78054;DHT22;67726;45.636;11.752;2024-02-23T14:36:20;11.30;99.90
78054;DHT22;67726;45.636;11.752;2024-02-23T14:38:45;11.30;99.90
78054;DHT22;67726;45.636;11.752;2024-02-23T14:41:11;11.20;99.90
78054;DHT22;67726;45.636;11.752;2024-02-23T14:43:37;11.10;99.90
78054;DHT22;67726;45.636;11.752;2024-02-23T14:46:03;11.00;99.90
78054;DHT22;67726;45.636;11.752;2024-02-23T14:48:30;10.90;99.90
78054;DHT22;67726;45.636;11.752;2024-02-23T14:50:56;10.90;99.90
78054;DHT22;67726;45.636;11.752;2024-02-23T14:53:23;10.90;99.90
78054;DHT22;67726;45.636;11.752;2024-02-23T14:55:49;10.80;99.90
78054;DHT22;67726;45.636;11.752;2024-02-23T14:58:15;10.80;99.90
78054;DHT22;67726;45.636;11.752;2024-02-23T15:00:40;10.80;99.90
78054;DHT22;67726;45.636;11.752;2024-02-23T15:03:06;10.70;99.90
78054;DHT22;67726;45.636;11.752;2024-02-23T15:05:34;10.60;99.90
78054;DHT22;67726;45.636;11.752;2024-02-23T15:08:00;10.60;99.90
78054;DHT22;67726;45.636;11.752;2024-02-23T15:10:25;10.50;99.90
78054;DHT22;67726;45.636;11.752;2024-02-23T15:12:53;10.40;99.90
78054;DHT22;67726;45.636;11.752;2024-02-23T15:15:19;10.40;99.90